This is the latest recevied weather packets stored in our database for station/object AC2VK-1. If no packets are shown the sender has not sent any weather packets the latest 10 day(s).
| Time | Temp. | Humidity | Pressure | Rain* | Wind** | Luminosity | Snow |
|---|---|---|---|---|---|---|---|
| 1777843761 | 18.89° C | 40% | 1019.8 hPa | 0 mm | - | - | - |
| 1777843162 | 18.33° C | 42% | 1019.9 hPa | 0 mm | - | - | - |
| 1777842562 | 18.33° C | 40% | 1019.9 hPa | 0 mm | - | - | - |
| 1777841962 | 18.33° C | 40% | 1020 hPa | 0 mm | - | - | - |
| 1777841362 | 18.33° C | 40% | 1020 hPa | 0 mm | - | - | - |
| 1777840762 | 17.78° C | 44% | 1020.3 hPa | 0 mm | - | - | - |
| 1777840162 | 18.33° C | 42% | 1020.5 hPa | 0 mm | - | - | - |
| 1777839562 | 17.78° C | 40% | 1020.6 hPa | 0 mm | - | - | - |
| 1777838962 | 18.33° C | 40% | 1020.8 hPa | 0 mm | - | - | - |
| 1777838362 | 17.78° C | 41% | 1021 hPa | 0 mm | - | - | - |
| 1777837762 | 17.78° C | 44% | 1021.1 hPa | 0 mm | - | - | - |
| 1777837162 | 17.78° C | 45% | 1021.1 hPa | 0 mm | - | - | - |
| 1777836562 | 17.78° C | 44% | 1021.4 hPa | 0 mm | - | - | - |
| 1777835962 | 17.78° C | 44% | 1021.5 hPa | 0 mm | - | - | - |
| 1777835362 | 17.22° C | 43% | 1021.5 hPa | 0 mm | - | - | - |
| 1777834762 | 17.22° C | 44% | 1021.7 hPa | 0 mm | - | - | - |
| 1777834162 | 17.22° C | 43% | 1021.8 hPa | 0 mm | - | - | - |
| 1777833562 | 16.67° C | 46% | 1022 hPa | 0 mm | - | - | - |
| 1777832962 | 16.11° C | 47% | 1021.9 hPa | 0 mm | - | - | - |
| 1777832362 | 16.11° C | 45% | 1022.3 hPa | 0 mm | - | - | - |
| 1777831762 | 16.11° C | 45% | 1022.3 hPa | 0 mm | - | - | - |
| 1777831162 | 15.56° C | 45% | 1022.3 hPa | 0 mm | - | - | - |
| 1777830562 | 15.56° C | 45% | 1022.5 hPa | 0 mm | - | - | - |
| 1777829962 | 15° C | 48% | 1022.6 hPa | 0 mm | - | - | - |
| 1777829362 | 16.11° C | 45% | 1022.7 hPa | 0 mm | - | - | - |
* Rain latest hour (hover to see other rain measurements)
** Current wind speed in m/s (hover to see current wind gust speed)